sensor_id;sensor_type;location;lat;lon;timestamp;temperature;humidity
84330;SHT31;74510;42.676;23.432;2024-02-26T00:01:23;6.13;88.60
84330;SHT31;74510;42.676;23.432;2024-02-26T00:03:49;6.00;89.08
84330;SHT31;74510;42.676;23.432;2024-02-26T00:06:15;6.03;89.32
84330;SHT31;74510;42.676;23.432;2024-02-26T00:08:40;6.05;89.21
84330;SHT31;74510;42.676;23.432;2024-02-26T00:11:07;6.05;89.33
84330;SHT31;74510;42.676;23.432;2024-02-26T00:13:32;6.07;89.39
84330;SHT31;74510;42.676;23.432;2024-02-26T00:15:57;6.03;89.48
84330;SHT31;74510;42.676;23.432;2024-02-26T00:18:23;6.09;89.45
84330;SHT31;74510;42.676;23.432;2024-02-26T00:20:48;6.07;89.35
84330;SHT31;74510;42.676;23.432;2024-02-26T00:23:17;6.11;89.21
84330;SHT31;74510;42.676;23.432;2024-02-26T00:25:42;6.14;88.86
84330;SHT31;74510;42.676;23.432;2024-02-26T00:28:09;6.09;89.25
84330;SHT31;74510;42.676;23.432;2024-02-26T00:30:35;6.11;89.35
84330;SHT31;74510;42.676;23.432;2024-02-26T00:33:00;6.24;89.41
84330;SHT31;74510;42.676;23.432;2024-02-26T00:35:26;6.21;89.52
84330;SHT31;74510;42.676;23.432;2024-02-26T00:37:51;6.31;89.48
84330;SHT31;74510;42.676;23.432;2024-02-26T00:40:17;6.30;89.06
84330;SHT31;74510;42.676;23.432;2024-02-26T00:42:42;6.24;89.42
84330;SHT31;74510;42.676;23.432;2024-02-26T00:45:11;6.20;89.80
84330;SHT31;74510;42.676;23.432;2024-02-26T00:47:37;6.14;90.13
84330;SHT31;74510;42.676;23.432;2024-02-26T00:50:02;6.13;90.24
84330;SHT31;74510;42.676;23.432;2024-02-26T00:52:28;6.13;90.42
84330;SHT31;74510;42.676;23.432;2024-02-26T00:54:53;6.14;90.49
84330;SHT31;74510;42.676;23.432;2024-02-26T00:57:19;6.10;90.64
84330;SHT31;74510;42.676;23.432;2024-02-26T00:59:44;6.10;90.92
84330;SHT31;74510;42.676;23.432;2024-02-26T01:02:09;6.11;91.04
84330;SHT31;74510;42.676;23.432;2024-02-26T01:04:35;6.20;90.77
84330;SHT31;74510;42.676;23.432;2024-02-26T01:07:00;6.21;90.63
84330;SHT31;74510;42.676;23.432;2024-02-26T01:09:26;6.24;90.47
84330;SHT31;74510;42.676;23.432;2024-02-26T01:11:51;6.24;90.43
84330;SHT31;74510;42.676;23.432;2024-02-26T01:14:16;6.23;90.53
84330;SHT31;74510;42.676;23.432;2024-02-26T01:16:42;6.23;90.84
84330;SHT31;74510;42.676;23.432;2024-02-26T01:19:07;6.20;90.88
84330;SHT31;74510;42.676;23.432;2024-02-26T01:21:33;6.20;90.92
84330;SHT31;74510;42.676;23.432;2024-02-26T01:23:58;6.23;90.86
84330;SHT31;74510;42.676;23.432;2024-02-26T01:26:23;6.19;90.85
84330;SHT31;74510;42.676;23.432;2024-02-26T01:28:49;6.21;91.00
84330;SHT31;74510;42.676;23.432;2024-02-26T01:31:14;6.17;91.15
84330;SHT31;74510;42.676;23.432;2024-02-26T01:33:40;6.23;91.27
84330;SHT31;74510;42.676;23.432;2024-02-26T01:36:05;6.42;90.00
84330;SHT31;74510;42.676;23.432;2024-02-26T01:38:31;6.36;90.11
84330;SHT31;74510;42.676;23.432;2024-02-26T01:40:56;6.33;90.24
84330;SHT31;74510;42.676;23.432;2024-02-26T01:43:22;6.30;90.42
84330;SHT31;74510;42.676;23.432;2024-02-26T01:45:47;6.41;90.13
84330;SHT31;74510;42.676;23.432;2024-02-26T01:48:13;6.33;90.30
84330;SHT31;74510;42.676;23.432;2024-02-26T01:50:40;6.33;90.22
84330;SHT31;74510;42.676;23.432;2024-02-26T01:53:06;6.30;90.34
84330;SHT31;74510;42.676;23.432;2024-02-26T01:55:31;6.51;89.54
84330;SHT31;74510;42.676;23.432;2024-02-26T01:57:57;6.41;89.45
84330;SHT31;74510;42.676;23.432;2024-02-26T02:00:24;6.36;89.88
84330;SHT31;74510;42.676;23.432;2024-02-26T02:02:50;6.33;89.98
84330;SHT31;74510;42.676;23.432;2024-02-26T02:05:16;6.31;90.15
84330;SHT31;74510;42.676;23.432;2024-02-26T02:07:44;6.34;90.62
84330;SHT31;74510;42.676;23.432;2024-02-26T02:10:10;6.40;90.17
84330;SHT31;74510;42.676;23.432;2024-02-26T02:12:36;6.42;90.34
84330;SHT31;74510;42.676;23.432;2024-02-26T02:15:05;6.37;90.99
84330;SHT31;74510;42.676;23.432;2024-02-26T02:17:31;6.49;90.64
84330;SHT31;74510;42.676;23.432;2024-02-26T02:19:56;6.44;90.92
84330;SHT31;74510;42.676;23.432;2024-02-26T02:22:22;6.45;91.05
84330;SHT31;74510;42.676;23.432;2024-02-26T02:24:49;6.48;90.74
84330;SHT31;74510;42.676;23.432;2024-02-26T02:27:14;6.48;90.90
84330;SHT31;74510;42.676;23.432;2024-02-26T02:29:40;6.42;90.93
84330;SHT31;74510;42.676;23.432;2024-02-26T02:32:06;6.48;91.24
84330;SHT31;74510;42.676;23.432;2024-02-26T02:34:32;6.48;90.96
84330;SHT31;74510;42.676;23.432;2024-02-26T02:36:59;6.49;90.98
84330;SHT31;74510;42.676;23.432;2024-02-26T02:39:24;6.47;90.93
84330;SHT31;74510;42.676;23.432;2024-02-26T02:41:50;6.47;91.10
84330;SHT31;74510;42.676;23.432;2024-02-26T02:44:15;6.48;90.90
84330;SHT31;74510;42.676;23.432;2024-02-26T02:46:41;6.47;90.91
84330;SHT31;74510;42.676;23.432;2024-02-26T02:49:10;6.49;90.92
84330;SHT31;74510;42.676;23.432;2024-02-26T02:51:39;6.49;90.85
84330;SHT31;74510;42.676;23.432;2024-02-26T02:54:04;6.55;90.67
84330;SHT31;74510;42.676;23.432;2024-02-26T02:56:30;6.51;90.78
84330;SHT31;74510;42.676;23.432;2024-02-26T02:58:55;6.52;90.86
84330;SHT31;74510;42.676;23.432;2024-02-26T03:01:21;6.44;90.82
84330;SHT31;74510;42.676;23.432;2024-02-26T03:03:46;6.45;90.88
84330;SHT31;74510;42.676;23.432;2024-02-26T03:06:11;6.47;90.87
84330;SHT31;74510;42.676;23.432;2024-02-26T03:08:37;6.48;90.77
84330;SHT31;74510;42.676;23.432;2024-02-26T03:11:04;6.48;90.82
84330;SHT31;74510;42.676;23.432;2024-02-26T03:13:30;6.48;90.85
84330;SHT31;74510;42.676;23.432;2024-02-26T03:15:55;6.57;90.57
84330;SHT31;74510;42.676;23.432;2024-02-26T03:18:21;6.55;90.30
84330;SHT31;74510;42.676;23.432;2024-02-26T03:20:46;6.58;89.96
84330;SHT31;74510;42.676;23.432;2024-02-26T03:23:12;6.47;90.46
84330;SHT31;74510;42.676;23.432;2024-02-26T03:25:44;6.42;90.81
84330;SHT31;74510;42.676;23.432;2024-02-26T03:28:11;6.37;90.92
84330;SHT31;74510;42.676;23.432;2024-02-26T03:30:38;6.38;90.83
84330;SHT31;74510;42.676;23.432;2024-02-26T03:33:03;6.42;90.49
84330;SHT31;74510;42.676;23.432;2024-02-26T03:35:28;6.41;90.92
84330;SHT31;74510;42.676;23.432;2024-02-26T03:37:54;6.36;91.18
84330;SHT31;74510;42.676;23.432;2024-02-26T03:40:19;6.21;91.06
84330;SHT31;74510;42.676;23.432;2024-02-26T03:42:45;6.19;91.08
84330;SHT31;74510;42.676;23.432;2024-02-26T03:45:10;6.10;91.23
84330;SHT31;74510;42.676;23.432;2024-02-26T03:47:37;6.13;91.48
84330;SHT31;74510;42.676;23.432;2024-02-26T03:50:05;6.05;91.21
84330;SHT31;74510;42.676;23.432;2024-02-26T03:52:30;6.07;91.45
84330;SHT31;74510;42.676;23.432;2024-02-26T03:54:56;6.11;91.52
84330;SHT31;74510;42.676;23.432;2024-02-26T03:57:21;6.05;91.36
84330;SHT31;74510;42.676;23.432;2024-02-26T03:59:46;6.14;91.02
84330;SHT31;74510;42.676;23.432;2024-02-26T04:02:12;6.05;91.14
84330;SHT31;74510;42.676;23.432;2024-02-26T04:04:37;6.03;91.26
84330;SHT31;74510;42.676;23.432;2024-02-26T04:07:03;6.05;91.14
84330;SHT31;74510;42.676;23.432;2024-02-26T04:09:31;6.05;91.45
84330;SHT31;74510;42.676;23.432;2024-02-26T04:11:56;6.00;91.41
84330;SHT31;74510;42.676;23.432;2024-02-26T04:14:22;6.03;91.38
84330;SHT31;74510;42.676;23.432;2024-02-26T04:16:47;6.09;91.24
84330;SHT31;74510;42.676;23.432;2024-02-26T04:19:16;6.09;91.05
84330;SHT31;74510;42.676;23.432;2024-02-26T04:21:43;6.09;91.07
84330;SHT31;74510;42.676;23.432;2024-02-26T04:24:08;6.23;90.11
84330;SHT31;74510;42.676;23.432;2024-02-26T04:26:34;6.20;89.89
84330;SHT31;74510;42.676;23.432;2024-02-26T04:29:00;6.11;90.51
84330;SHT31;74510;42.676;23.432;2024-02-26T04:31:25;6.07;90.73
84330;SHT31;74510;42.676;23.432;2024-02-26T04:33:51;6.03;90.73
84330;SHT31;74510;42.676;23.432;2024-02-26T04:36:17;5.98;90.48
84330;SHT31;74510;42.676;23.432;2024-02-26T04:38:45;5.99;90.38
84330;SHT31;74510;42.676;23.432;2024-02-26T04:41:11;5.98;90.33
84330;SHT31;74510;42.676;23.432;2024-02-26T04:43:37;5.95;90.21
84330;SHT31;74510;42.676;23.432;2024-02-26T04:46:10;5.89;90.38
84330;SHT31;74510;42.676;23.432;2024-02-26T04:48:36;5.88;90.27
84330;SHT31;74510;42.676;23.432;2024-02-26T04:51:02;5.85;90.23
84330;SHT31;74510;42.676;23.432;2024-02-26T04:53:27;5.85;90.40
84330;SHT31;74510;42.676;23.432;2024-02-26T04:55:53;5.98;89.45
84330;SHT31;74510;42.676;23.432;2024-02-26T04:58:18;5.89;90.05
84330;SHT31;74510;42.676;23.432;2024-02-26T05:00:44;5.83;90.70
84330;SHT31;74510;42.676;23.432;2024-02-26T05:03:09;5.79;90.89
84330;SHT31;74510;42.676;23.432;2024-02-26T05:05:39;5.85;90.80
84330;SHT31;74510;42.676;23.432;2024-02-26T05:08:05;5.88;90.02
84330;SHT31;74510;42.676;23.432;2024-02-26T05:10:30;5.95;89.91
84330;SHT31;74510;42.676;23.432;2024-02-26T05:12:55;5.98;89.49
84330;SHT31;74510;42.676;23.432;2024-02-26T05:15:21;6.16;89.01
84330;SHT31;74510;42.676;23.432;2024-02-26T05:17:46;6.14;88.64
84330;SHT31;74510;42.676;23.432;2024-02-26T05:20:12;6.09;89.01
84330;SHT31;74510;42.676;23.432;2024-02-26T05:22:37;6.07;88.80
84330;SHT31;74510;42.676;23.432;2024-02-26T05:25:03;5.98;88.74
84330;SHT31;74510;42.676;23.432;2024-02-26T05:27:29;5.93;89.01
84330;SHT31;74510;42.676;23.432;2024-02-26T05:29:54;5.76;89.43
84330;SHT31;74510;42.676;23.432;2024-02-26T05:32:20;5.82;89.22
84330;SHT31;74510;42.676;23.432;2024-02-26T05:34:45;5.79;89.12
84330;SHT31;74510;42.676;23.432;2024-02-26T05:37:10;5.66;89.71
84330;SHT31;74510;42.676;23.432;2024-02-26T05:39:36;5.73;89.85
84330;SHT31;74510;42.676;23.432;2024-02-26T05:42:02;5.73;90.24
84330;SHT31;74510;42.676;23.432;2024-02-26T05:44:28;5.66;90.69
84330;SHT31;74510;42.676;23.432;2024-02-26T05:46:53;5.66;90.94
84330;SHT31;74510;42.676;23.432;2024-02-26T05:49:19;5.62;91.42
84330;SHT31;74510;42.676;23.432;2024-02-26T05:51:44;5.66;91.68
84330;SHT31;74510;42.676;23.432;2024-02-26T05:54:10;5.70;91.56
84330;SHT31;74510;42.676;23.432;2024-02-26T05:56:35;5.66;91.89
84330;SHT31;74510;42.676;23.432;2024-02-26T05:59:01;5.65;92.19
84330;SHT31;74510;42.676;23.432;2024-02-26T06:01:26;5.70;92.37
84330;SHT31;74510;42.676;23.432;2024-02-26T06:03:52;5.76;92.45
84330;SHT31;74510;42.676;23.432;2024-02-26T06:06:17;5.86;92.44
84330;SHT31;74510;42.676;23.432;2024-02-26T06:08:43;5.93;92.38
84330;SHT31;74510;42.676;23.432;2024-02-26T06:11:09;5.96;92.35
84330;SHT31;74510;42.676;23.432;2024-02-26T06:13:35;6.02;92.49
84330;SHT31;74510;42.676;23.432;2024-02-26T06:16:00;6.07;92.38
84330;SHT31;74510;42.676;23.432;2024-02-26T06:18:26;6.13;92.23
84330;SHT31;74510;42.676;23.432;2024-02-26T06:20:51;6.41;90.67
84330;SHT31;74510;42.676;23.432;2024-02-26T06:23:17;6.44;90.39
84330;SHT31;74510;42.676;23.432;2024-02-26T06:25:43;6.41;90.76
84330;SHT31;74510;42.676;23.432;2024-02-26T06:28:08;6.40;90.98
84330;SHT31;74510;42.676;23.432;2024-02-26T06:30:34;6.42;90.56
84330;SHT31;74510;42.676;23.432;2024-02-26T06:32:59;6.41;90.77
84330;SHT31;74510;42.676;23.432;2024-02-26T06:35:25;6.54;90.20
84330;SHT31;74510;42.676;23.432;2024-02-26T06:37:50;6.54;90.24
84330;SHT31;74510;42.676;23.432;2024-02-26T06:40:18;6.52;90.54
84330;SHT31;74510;42.676;23.432;2024-02-26T06:42:44;6.54;90.61
84330;SHT31;74510;42.676;23.432;2024-02-26T06:45:10;6.64;90.52
84330;SHT31;74510;42.676;23.432;2024-02-26T06:47:35;6.61;90.52
84330;SHT31;74510;42.676;23.432;2024-02-26T06:50:01;6.78;90.19
84330;SHT31;74510;42.676;23.432;2024-02-26T06:52:26;6.75;90.08
84330;SHT31;74510;42.676;23.432;2024-02-26T06:54:52;6.84;90.12
84330;SHT31;74510;42.676;23.432;2024-02-26T06:57:19;6.89;89.74
84330;SHT31;74510;42.676;23.432;2024-02-26T06:59:45;6.93;89.75
84330;SHT31;74510;42.676;23.432;2024-02-26T07:02:13;7.02;89.51
84330;SHT31;74510;42.676;23.432;2024-02-26T07:04:38;7.05;89.55
84330;SHT31;74510;42.676;23.432;2024-02-26T07:07:04;7.09;89.61
84330;SHT31;74510;42.676;23.432;2024-02-26T07:09:29;7.15;89.42
84330;SHT31;74510;42.676;23.432;2024-02-26T07:11:55;7.20;89.46
84330;SHT31;74510;42.676;23.432;2024-02-26T07:14:20;7.17;89.66
84330;SHT31;74510;42.676;23.432;2024-02-26T07:16:45;7.19;89.74
84330;SHT31;74510;42.676;23.432;2024-02-26T07:19:11;7.22;89.60
84330;SHT31;74510;42.676;23.432;2024-02-26T07:21:36;7.27;89.45
84330;SHT31;74510;42.676;23.432;2024-02-26T07:24:02;7.33;89.64
84330;SHT31;74510;42.676;23.432;2024-02-26T07:26:28;7.42;89.71
84330;SHT31;74510;42.676;23.432;2024-02-26T07:28:56;7.51;89.43
84330;SHT31;74510;42.676;23.432;2024-02-26T07:31:21;7.61;88.82
84330;SHT31;74510;42.676;23.432;2024-02-26T07:33:46;7.65;88.20
84330;SHT31;74510;42.676;23.432;2024-02-26T07:36:12;7.67;88.24
84330;SHT31;74510;42.676;23.432;2024-02-26T07:38:37;7.78;88.65
84330;SHT31;74510;42.676;23.432;2024-02-26T07:41:04;7.77;88.31
84330;SHT31;74510;42.676;23.432;2024-02-26T07:43:30;7.70;88.48
84330;SHT31;74510;42.676;23.432;2024-02-26T07:45:55;7.71;88.85
84330;SHT31;74510;42.676;23.432;2024-02-26T07:48:20;7.81;88.22
84330;SHT31;74510;42.676;23.432;2024-02-26T07:50:46;7.92;88.32
84330;SHT31;74510;42.676;23.432;2024-02-26T07:53:11;7.89;88.00
84330;SHT31;74510;42.676;23.432;2024-02-26T07:55:37;7.99;88.20
84330;SHT31;74510;42.676;23.432;2024-02-26T07:58:02;8.12;87.40
84330;SHT31;74510;42.676;23.432;2024-02-26T08:00:28;8.22;86.79
84330;SHT31;74510;42.676;23.432;2024-02-26T08:02:53;8.28;87.44
84330;SHT31;74510;42.676;23.432;2024-02-26T08:05:19;8.36;86.86
84330;SHT31;74510;42.676;23.432;2024-02-26T08:07:44;8.60;85.94
84330;SHT31;74510;42.676;23.432;2024-02-26T08:10:10;8.63;85.70
84330;SHT31;74510;42.676;23.432;2024-02-26T08:12:36;8.71;85.70
84330;SHT31;74510;42.676;23.432;2024-02-26T08:15:02;8.80;85.52
84330;SHT31;74510;42.676;23.432;2024-02-26T08:17:27;8.88;85.04
84330;SHT31;74510;42.676;23.432;2024-02-26T08:19:53;8.92;84.20
84330;SHT31;74510;42.676;23.432;2024-02-26T08:22:18;8.93;85.04
84330;SHT31;74510;42.676;23.432;2024-02-26T08:24:44;8.91;85.12
84330;SHT31;74510;42.676;23.432;2024-02-26T08:27:09;8.99;85.69
84330;SHT31;74510;42.676;23.432;2024-02-26T08:29:35;9.07;84.91
84330;SHT31;74510;42.676;23.432;2024-02-26T08:32:01;9.18;85.09
84330;SHT31;74510;42.676;23.432;2024-02-26T08:34:26;9.35;84.82
84330;SHT31;74510;42.676;23.432;2024-02-26T08:36:51;9.61;83.75
84330;SHT31;74510;42.676;23.432;2024-02-26T08:39:17;9.87;82.60
84330;SHT31;74510;42.676;23.432;2024-02-26T08:41:46;10.11;82.07
84330;SHT31;74510;42.676;23.432;2024-02-26T08:44:11;10.21;81.07
84330;SHT31;74510;42.676;23.432;2024-02-26T08:46:37;10.31;81.18
84330;SHT31;74510;42.676;23.432;2024-02-26T08:49:03;10.70;79.06
84330;SHT31;74510;42.676;23.432;2024-02-26T08:51:28;11.13;75.88
84330;SHT31;74510;42.676;23.432;2024-02-26T08:53:54;11.46;74.01
84330;SHT31;74510;42.676;23.432;2024-02-26T08:56:20;11.75;73.05
84330;SHT31;74510;42.676;23.432;2024-02-26T08:58:46;11.97;72.46
84330;SHT31;74510;42.676;23.432;2024-02-26T09:01:14;12.01;72.33
84330;SHT31;74510;42.676;23.432;2024-02-26T09:03:40;12.21;70.92
84330;SHT31;74510;42.676;23.432;2024-02-26T09:06:05;12.36;70.49
84330;SHT31;74510;42.676;23.432;2024-02-26T09:08:32;12.44;68.16
84330;SHT31;74510;42.676;23.432;2024-02-26T09:10:58;12.59;68.33
84330;SHT31;74510;42.676;23.432;2024-02-26T09:13:23;12.69;66.66
84330;SHT31;74510;42.676;23.432;2024-02-26T09:15:48;12.68;66.96
84330;SHT31;74510;42.676;23.432;2024-02-26T09:18:14;12.76;66.65
84330;SHT31;74510;42.676;23.432;2024-02-26T09:20:40;12.76;66.25
84330;SHT31;74510;42.676;23.432;2024-02-26T09:23:06;12.85;67.15
84330;SHT31;74510;42.676;23.432;2024-02-26T09:25:31;12.99;66.25
84330;SHT31;74510;42.676;23.432;2024-02-26T09:27:59;13.03;66.69
84330;SHT31;74510;42.676;23.432;2024-02-26T09:30:24;13.22;66.72
84330;SHT31;74510;42.676;23.432;2024-02-26T09:32:49;13.40;63.55
84330;SHT31;74510;42.676;23.432;2024-02-26T09:35:15;13.50;63.09
84330;SHT31;74510;42.676;23.432;2024-02-26T09:37:40;13.58;62.89
84330;SHT31;74510;42.676;23.432;2024-02-26T09:40:06;13.64;61.93
84330;SHT31;74510;42.676;23.432;2024-02-26T09:42:32;13.72;60.71
84330;SHT31;74510;42.676;23.432;2024-02-26T09:45:00;13.86;61.19
84330;SHT31;74510;42.676;23.432;2024-02-26T09:47:31;13.92;61.15
84330;SHT31;74510;42.676;23.432;2024-02-26T09:49:56;13.94;60.01
84330;SHT31;74510;42.676;23.432;2024-02-26T09:52:24;13.98;59.46
84330;SHT31;74510;42.676;23.432;2024-02-26T09:54:50;14.01;58.66
84330;SHT31;74510;42.676;23.432;2024-02-26T09:57:16;14.02;60.10
84330;SHT31;74510;42.676;23.432;2024-02-26T09:59:43;13.98;60.35
84330;SHT31;74510;42.676;23.432;2024-02-26T10:02:11;13.92;59.33
84330;SHT31;74510;42.676;23.432;2024-02-26T10:04:39;13.98;59.89
84330;SHT31;74510;42.676;23.432;2024-02-26T10:07:07;14.08;59.67
84330;SHT31;74510;42.676;23.432;2024-02-26T10:09:34;14.01;58.84
84330;SHT31;74510;42.676;23.432;2024-02-26T10:12:00;13.98;59.93
84330;SHT31;74510;42.676;23.432;2024-02-26T10:14:25;13.99;59.84
84330;SHT31;74510;42.676;23.432;2024-02-26T10:16:51;13.99;59.56
84330;SHT31;74510;42.676;23.432;2024-02-26T10:19:27;14.09;60.16
84330;SHT31;74510;42.676;23.432;2024-02-26T10:21:59;14.15;59.01
84330;SHT31;74510;42.676;23.432;2024-02-26T10:24:26;14.29;59.21
84330;SHT31;74510;42.676;23.432;2024-02-26T10:26:52;14.40;58.16
84330;SHT31;74510;42.676;23.432;2024-02-26T10:29:19;14.23;57.79
84330;SHT31;74510;42.676;23.432;2024-02-26T10:31:45;14.28;58.05
84330;SHT31;74510;42.676;23.432;2024-02-26T10:34:10;14.23;57.59
84330;SHT31;74510;42.676;23.432;2024-02-26T10:36:36;14.33;58.66
84330;SHT31;74510;42.676;23.432;2024-02-26T10:39:05;14.30;57.26
84330;SHT31;74510;42.676;23.432;2024-02-26T10:41:30;14.34;58.35
84330;SHT31;74510;42.676;23.432;2024-02-26T10:43:56;14.32;57.91
84330;SHT31;74510;42.676;23.432;2024-02-26T10:46:22;14.34;57.94
84330;SHT31;74510;42.676;23.432;2024-02-26T10:48:51;14.46;57.81
84330;SHT31;74510;42.676;23.432;2024-02-26T10:51:29;14.56;57.65
84330;SHT31;74510;42.676;23.432;2024-02-26T10:53:57;14.50;57.84
84330;SHT31;74510;42.676;23.432;2024-02-26T10:56:27;14.51;57.30
84330;SHT31;74510;42.676;23.432;2024-02-26T10:58:58;14.61;56.92
84330;SHT31;74510;42.676;23.432;2024-02-26T11:01:24;14.61;56.81
84330;SHT31;74510;42.676;23.432;2024-02-26T11:03:51;14.67;56.99
84330;SHT31;74510;42.676;23.432;2024-02-26T11:06:18;14.76;56.14
84330;SHT31;74510;42.676;23.432;2024-02-26T11:08:44;14.74;55.45
84330;SHT31;74510;42.676;23.432;2024-02-26T11:11:10;14.85;55.41
84330;SHT31;74510;42.676;23.432;2024-02-26T11:13:40;14.88;54.92
84330;SHT31;74510;42.676;23.432;2024-02-26T11:16:09;14.94;53.71
84330;SHT31;74510;42.676;23.432;2024-02-26T11:18:35;14.87;54.40
84330;SHT31;74510;42.676;23.432;2024-02-26T11:21:01;14.88;53.70
84330;SHT31;74510;42.676;23.432;2024-02-26T11:23:28;14.78;53.64
84330;SHT31;74510;42.676;23.432;2024-02-26T11:25:55;14.81;53.69
84330;SHT31;74510;42.676;23.432;2024-02-26T11:28:22;14.83;53.74
84330;SHT31;74510;42.676;23.432;2024-02-26T11:30:49;14.91;53.91
84330;SHT31;74510;42.676;23.432;2024-02-26T11:33:16;14.83;53.84
84330;SHT31;74510;42.676;23.432;2024-02-26T11:35:41;14.85;53.86
84330;SHT31;74510;42.676;23.432;2024-02-26T11:38:07;14.84;53.87
84330;SHT31;74510;42.676;23.432;2024-02-26T11:40:37;14.78;54.26
84330;SHT31;74510;42.676;23.432;2024-02-26T11:43:06;14.77;55.24
84330;SHT31;74510;42.676;23.432;2024-02-26T11:48:03;14.91;52.27
84330;SHT31;74510;42.676;23.432;2024-02-26T11:50:36;14.78;52.70
84330;SHT31;74510;42.676;23.432;2024-02-26T11:53:25;14.81;53.02
84330;SHT31;74510;42.676;23.432;2024-02-26T11:56:13;14.83;53.02
84330;SHT31;74510;42.676;23.432;2024-02-26T11:58:45;14.95;52.90
84330;SHT31;74510;42.676;23.432;2024-02-26T12:04:02;15.04;52.15
84330;SHT31;74510;42.676;23.432;2024-02-26T12:06:27;15.02;51.78
84330;SHT31;74510;42.676;23.432;2024-02-26T12:08:55;15.08;51.78
84330;SHT31;74510;42.676;23.432;2024-02-26T12:11:21;15.09;52.15
84330;SHT31;74510;42.676;23.432;2024-02-26T12:13:47;15.16;51.76
84330;SHT31;74510;42.676;23.432;2024-02-26T12:16:40;15.31;51.73
84330;SHT31;74510;42.676;23.432;2024-02-26T12:19:10;15.32;51.22
84330;SHT31;74510;42.676;23.432;2024-02-26T12:21:37;15.29;51.48
84330;SHT31;74510;42.676;23.432;2024-02-26T12:24:13;15.38;50.88
84330;SHT31;74510;42.676;23.432;2024-02-26T12:26:40;15.35;50.11
84330;SHT31;74510;42.676;23.432;2024-02-26T12:29:06;15.35;50.97
84330;SHT31;74510;42.676;23.432;2024-02-26T12:31:32;15.45;51.05
84330;SHT31;74510;42.676;23.432;2024-02-26T12:33:59;15.52;50.51
84330;SHT31;74510;42.676;23.432;2024-02-26T12:36:24;15.66;50.90
84330;SHT31;74510;42.676;23.432;2024-02-26T12:38:51;15.57;50.43
84330;SHT31;74510;42.676;23.432;2024-02-26T12:41:16;15.69;50.42
84330;SHT31;74510;42.676;23.432;2024-02-26T12:43:42;15.71;50.38
84330;SHT31;74510;42.676;23.432;2024-02-26T12:46:08;15.70;48.42
84330;SHT31;74510;42.676;23.432;2024-02-26T12:48:33;15.74;49.10
84330;SHT31;74510;42.676;23.432;2024-02-26T12:50:59;15.70;49.22
84330;SHT31;74510;42.676;23.432;2024-02-26T12:53:26;15.79;49.49
84330;SHT31;74510;42.676;23.432;2024-02-26T12:55:55;15.77;48.95
84330;SHT31;74510;42.676;23.432;2024-02-26T12:58:21;15.73;48.90
84330;SHT31;74510;42.676;23.432;2024-02-26T13:00:51;15.80;49.09
84330;SHT31;74510;42.676;23.432;2024-02-26T13:03:17;15.84;49.34
84330;SHT31;74510;42.676;23.432;2024-02-26T13:05:43;15.87;48.26
84330;SHT31;74510;42.676;23.432;2024-02-26T13:08:10;15.94;47.73
84330;SHT31;74510;42.676;23.432;2024-02-26T13:10:35;15.86;48.84
84330;SHT31;74510;42.676;23.432;2024-02-26T13:13:02;15.90;47.75
84330;SHT31;74510;42.676;23.432;2024-02-26T13:15:28;15.86;47.74
84330;SHT31;74510;42.676;23.432;2024-02-26T13:17:53;15.97;47.80
84330;SHT31;74510;42.676;23.432;2024-02-26T13:20:28;16.05;47.10
84330;SHT31;74510;42.676;23.432;2024-02-26T13:23:05;16.08;47.45
84330;SHT31;74510;42.676;23.432;2024-02-26T13:25:31;16.13;46.83
84330;SHT31;74510;42.676;23.432;2024-02-26T13:28:14;16.05;46.59
84330;SHT31;74510;42.676;23.432;2024-02-26T13:30:41;16.15;46.48
84330;SHT31;74510;42.676;23.432;2024-02-26T13:33:11;16.18;46.40
84330;SHT31;74510;42.676;23.432;2024-02-26T13:35:37;16.13;46.24
84330;SHT31;74510;42.676;23.432;2024-02-26T13:38:04;16.15;46.01
84330;SHT31;74510;42.676;23.432;2024-02-26T13:40:31;16.22;46.12
84330;SHT31;74510;42.676;23.432;2024-02-26T13:42:56;16.26;45.61
84330;SHT31;74510;42.676;23.432;2024-02-26T13:45:22;16.29;46.86
84330;SHT31;74510;42.676;23.432;2024-02-26T13:47:47;16.28;45.25
84330;SHT31;74510;42.676;23.432;2024-02-26T13:50:13;16.35;44.67
84330;SHT31;74510;42.676;23.432;2024-02-26T13:52:38;16.21;45.71
84330;SHT31;74510;42.676;23.432;2024-02-26T13:55:04;16.21;45.81
84330;SHT31;74510;42.676;23.432;2024-02-26T13:57:30;16.25;46.21
84330;SHT31;74510;42.676;23.432;2024-02-26T13:59:55;16.34;44.63
84330;SHT31;74510;42.676;23.432;2024-02-26T14:02:21;16.22;45.10
84330;SHT31;74510;42.676;23.432;2024-02-26T14:04:46;16.13;44.94
84330;SHT31;74510;42.676;23.432;2024-02-26T14:07:12;16.05;44.99
84330;SHT31;74510;42.676;23.432;2024-02-26T14:09:38;15.98;44.71
84330;SHT31;74510;42.676;23.432;2024-02-26T14:12:04;15.96;44.94
84330;SHT31;74510;42.676;23.432;2024-02-26T14:14:29;15.86;45.38
84330;SHT31;74510;42.676;23.432;2024-02-26T14:16:58;15.84;45.21
84330;SHT31;74510;42.676;23.432;2024-02-26T14:19:23;15.73;45.39
84330;SHT31;74510;42.676;23.432;2024-02-26T14:21:49;15.70;44.97
84330;SHT31;74510;42.676;23.432;2024-02-26T14:24:14;15.67;44.79
84330;SHT31;74510;42.676;23.432;2024-02-26T14:26:40;15.63;45.88
84330;SHT31;74510;42.676;23.432;2024-02-26T14:29:06;15.52;45.46
84330;SHT31;74510;42.676;23.432;2024-02-26T14:31:32;15.43;46.34
84330;SHT31;74510;42.676;23.432;2024-02-26T14:34:15;15.46;45.60
84330;SHT31;74510;42.676;23.432;2024-02-26T14:36:42;15.32;45.77
84330;SHT31;74510;42.676;23.432;2024-02-26T14:39:08;15.35;46.26
84330;SHT31;74510;42.676;23.432;2024-02-26T14:41:38;15.21;45.54
84330;SHT31;74510;42.676;23.432;2024-02-26T14:44:03;15.16;45.52
84330;SHT31;74510;42.676;23.432;2024-02-26T14:46:29;15.07;46.64
84330;SHT31;74510;42.676;23.432;2024-02-26T14:48:54;15.08;46.66
84330;SHT31;74510;42.676;23.432;2024-02-26T14:51:22;15.05;46.89
84330;SHT31;74510;42.676;23.432;2024-02-26T14:53:47;15.01;47.60
84330;SHT31;74510;42.676;23.432;2024-02-26T14:56:12;14.89;47.56
84330;SHT31;74510;42.676;23.432;2024-02-26T14:58:38;14.95;47.45
84330;SHT31;74510;42.676;23.432;2024-02-26T15:01:03;14.87;47.48
84330;SHT31;74510;42.676;23.432;2024-02-26T15:03:29;14.81;47.33
84330;SHT31;74510;42.676;23.432;2024-02-26T15:05:54;14.74;47.01
84330;SHT31;74510;42.676;23.432;2024-02-26T15:08:20;14.66;46.86
84330;SHT31;74510;42.676;23.432;2024-02-26T15:10:45;14.70;47.56
84330;SHT31;74510;42.676;23.432;2024-02-26T15:13:14;14.64;47.57
84330;SHT31;74510;42.676;23.432;2024-02-26T15:15:41;14.55;47.28
84330;SHT31;74510;42.676;23.432;2024-02-26T15:18:07;14.46;47.62
84330;SHT31;74510;42.676;23.432;2024-02-26T15:20:33;14.36;48.12
84330;SHT31;74510;42.676;23.432;2024-02-26T15:22:59;14.33;48.16
84330;SHT31;74510;42.676;23.432;2024-02-26T15:25:24;14.37;48.17